createdAt,value
2022-08-07T00:00:18.741Z,2.50
2022-08-07T00:03:02.756Z,3.00
2022-08-07T00:05:45.644Z,2.63
2022-08-07T00:08:29.162Z,2.40
2022-08-07T00:11:11.995Z,2.17
2022-08-07T00:14:02.695Z,2.22
2022-08-07T00:16:47.039Z,2.42
2022-08-07T00:20:00.277Z,2.80
2022-08-07T00:22:35.322Z,3.30
2022-08-07T00:25:18.439Z,3.45
2022-08-07T00:28:01.399Z,3.72
2022-08-07T00:30:45.530Z,3.92
2022-08-07T00:33:29.685Z,3.85
2022-08-07T00:36:16.871Z,4.47
2022-08-07T00:38:59.841Z,3.67
2022-08-07T00:41:53.738Z,3.38
2022-08-07T00:44:45.336Z,3.20
2022-08-07T00:48:07.867Z,3.13
2022-08-07T00:50:46.273Z,3.88
2022-08-07T00:53:38.878Z,3.83
2022-08-07T00:56:33.985Z,3.80
2022-08-07T00:59:16.832Z,3.78
2022-08-07T01:02:03.383Z,3.83
2022-08-07T01:04:48.959Z,3.45
2022-08-07T01:07:33.586Z,3.72
2022-08-07T01:10:17.115Z,3.17
2022-08-07T01:13:01.203Z,2.83
2022-08-07T01:16:05.088Z,2.30
2022-08-07T01:18:49.233Z,2.10
2022-08-07T01:21:36.924Z,2.00
2022-08-07T01:24:21.578Z,2.08
2022-08-07T01:27:06.159Z,2.30
2022-08-07T01:30:02.916Z,2.70
2022-08-07T01:32:45.989Z,2.33
2022-08-07T01:35:52.934Z,2.03
2022-08-07T01:38:33.872Z,2.60
2022-08-07T01:41:26.939Z,2.17
2022-08-07T01:44:13.906Z,2.70
2022-08-07T01:47:01.117Z,2.45
2022-08-07T01:49:59.610Z,2.50
2022-08-07T01:52:49.397Z,2.38
2022-08-07T01:55:43.772Z,2.17
2022-08-07T01:58:33.393Z,2.28
2022-08-07T02:02:02.741Z,2.75
2022-08-07T02:04:33.025Z,2.40
2022-08-07T02:07:21.405Z,2.47
2022-08-07T02:10:07.249Z,2.60
2022-08-07T02:12:57.692Z,2.80
2022-08-07T02:15:48.205Z,2.45
2022-08-07T02:18:37.410Z,2.38
2022-08-07T02:21:55.431Z,2.42
2022-08-07T02:24:33.825Z,2.50
2022-08-07T02:27:18.303Z,2.40
2022-08-07T02:30:03.918Z,2.35
2022-08-07T02:33:08.929Z,2.58
2022-08-07T02:36:30.420Z,2.65
2022-08-07T02:38:57.744Z,2.60
2022-08-07T02:41:50.559Z,2.70
2022-08-07T02:44:36.501Z,2.53
2022-08-07T02:47:23.968Z,2.00
2022-08-07T02:50:18.448Z,2.10
2022-08-07T02:53:06.132Z,2.42
2022-08-07T02:56:02.197Z,2.03
2022-08-07T02:58:51.475Z,1.80
2022-08-07T03:01:40.261Z,2.08
2022-08-07T03:04:29.433Z,2.45
2022-08-07T03:07:13.433Z,2.10
2022-08-07T03:10:02.120Z,2.00
2022-08-07T03:12:46.807Z,2.20
2022-08-07T03:15:55.690Z,2.17
2022-08-07T03:18:36.199Z,2.45
2022-08-07T03:21:22.558Z,3.15
2022-08-07T03:24:18.317Z,2.70
2022-08-07T03:27:09.228Z,2.30
2022-08-07T03:30:01.396Z,2.67
2022-08-07T03:32:58.360Z,2.33
2022-08-07T03:35:50.034Z,2.45
2022-08-07T03:38:35.815Z,2.97
2022-08-07T03:41:41.676Z,2.80
2022-08-07T03:44:34.417Z,2.70
2022-08-07T03:47:18.281Z,2.90
2022-08-07T03:50:04.317Z,2.65
2022-08-07T03:52:53.135Z,2.50
2022-08-07T03:55:58.143Z,2.80
2022-08-07T03:59:08.890Z,2.70
2022-08-07T04:01:46.430Z,2.60
2022-08-07T04:04:32.949Z,2.47
2022-08-07T04:07:22.881Z,2.58
2022-08-07T04:10:07.198Z,2.45
2022-08-07T04:13:00.801Z,2.92
2022-08-07T04:15:45.622Z,2.70
2022-08-07T04:18:59.479Z,2.40
2022-08-07T04:21:36.300Z,2.00
2022-08-07T04:24:30.319Z,1.63
2022-08-07T04:27:25.370Z,1.92
2022-08-07T04:30:21.025Z,1.98
2022-08-07T04:33:13.898Z,2.00
2022-08-07T04:36:01.275Z,2.22
2022-08-07T04:38:49.354Z,2.10
2022-08-07T04:41:36.894Z,1.92
2022-08-07T04:44:20.704Z,2.08
2022-08-07T04:47:08.973Z,2.58
2022-08-07T04:50:04.807Z,2.45
2022-08-07T04:53:00.602Z,1.90
2022-08-07T04:58:10.081Z,2.20
2022-08-07T05:02:03.464Z,2.50
2022-08-07T05:04:52.901Z,2.85
2022-08-07T05:07:39.043Z,2.55
2022-08-07T05:10:36.236Z,2.50
2022-08-07T05:14:53.823Z,2.30
2022-08-07T05:16:25.163Z,3.22
2022-08-07T05:19:09.628Z,3.42
2022-08-07T05:22:00.365Z,3.20
2022-08-07T05:24:47.111Z,3.90
2022-08-07T05:28:02.450Z,3.53
2022-08-07T05:30:38.150Z,3.55
2022-08-07T05:33:23.493Z,3.47
2022-08-07T05:36:12.096Z,3.88
2022-08-07T05:39:08.997Z,4.15
2022-08-07T05:42:15.128Z,3.80
2022-08-07T05:45:46.027Z,3.90
2022-08-07T05:48:20.817Z,3.72
2022-08-07T05:51:11.462Z,3.83
2022-08-07T05:54:09.680Z,3.88
2022-08-07T05:56:58.967Z,3.92
2022-08-07T05:59:56.182Z,3.60
2022-08-07T06:02:46.237Z,3.75
2022-08-07T06:05:31.401Z,3.83
2022-08-07T06:08:30.685Z,4.05
2022-08-07T06:11:14.975Z,3.78
2022-08-07T06:14:11.676Z,4.18
2022-08-07T06:16:59.641Z,4.40
2022-08-07T06:20:03.296Z,4.20
2022-08-07T06:23:01.899Z,4.15
2022-08-07T06:25:57.038Z,4.72
2022-08-07T06:28:52.772Z,4.20
2022-08-07T06:31:47.278Z,4.70
2022-08-07T06:34:35.503Z,3.78
2022-08-07T06:37:20.555Z,4.15
2022-08-07T06:40:13.514Z,4.43
2022-08-07T06:43:01.530Z,4.28
2022-08-07T06:46:11.584Z,3.72
2022-08-07T06:48:57.207Z,3.90
2022-08-07T06:51:50.053Z,3.88
2022-08-07T06:55:31.952Z,3.92
2022-08-07T06:57:41.344Z,4.15
2022-08-07T07:00:35.486Z,4.40
2022-08-07T07:03:18.665Z,4.35
2022-08-07T07:06:06.276Z,3.75
2022-08-07T07:08:54.012Z,3.53
2022-08-07T07:12:08.239Z,3.72
2022-08-07T07:14:42.746Z,3.83
2022-08-07T07:17:28.858Z,3.90
2022-08-07T07:20:23.100Z,3.42
2022-08-07T07:24:06.491Z,3.00
2022-08-07T07:26:35.786Z,3.20
2022-08-07T07:29:39.251Z,3.53
2022-08-07T07:32:25.176Z,3.05
2022-08-07T07:35:09.391Z,3.20
2022-08-07T07:38:02.646Z,3.03
2022-08-07T07:40:50.622Z,2.53
2022-08-07T07:43:47.802Z,2.35
2022-08-07T07:46:55.200Z,2.58
2022-08-07T07:50:33.161Z,2.40
2022-08-07T07:52:47.093Z,2.42
2022-08-07T07:55:37.839Z,2.30
2022-08-07T07:58:40.400Z,2.15
2022-08-07T08:02:04.843Z,2.38
2022-08-07T08:04:28.116Z,2.03
2022-08-07T08:07:11.662Z,2.25
2022-08-07T08:10:04.841Z,2.20
2022-08-07T08:12:59.259Z,2.30
2022-08-07T08:15:59.076Z,2.13
2022-08-07T08:18:45.074Z,2.22
2022-08-07T08:21:55.691Z,2.20
2022-08-07T08:25:18.169Z,2.10
2022-08-07T08:28:04.600Z,2.13
2022-08-07T08:30:51.533Z,2.20
2022-08-07T08:33:39.452Z,2.40
2022-08-07T08:36:31.551Z,2.40
2022-08-07T08:39:16.793Z,1.92
2022-08-07T08:42:07.227Z,2.00
2022-08-07T08:44:55.515Z,2.10
2022-08-07T08:47:51.899Z,2.03
2022-08-07T08:50:39.486Z,2.35
2022-08-07T08:53:26.474Z,1.95
2022-08-07T08:56:13.696Z,1.77
2022-08-07T08:59:08.690Z,1.98
2022-08-07T09:02:00.426Z,2.20
2022-08-07T09:04:48.265Z,1.92
2022-08-07T09:07:46.380Z,2.15
2022-08-07T09:10:44.237Z,2.13
2022-08-07T09:13:38.046Z,2.15
2022-08-07T09:16:30.368Z,1.90
2022-08-07T09:19:51.821Z,2.20
2022-08-07T09:24:28.298Z,2.30
2022-08-07T09:25:38.227Z,1.88
2022-08-07T09:30:04.039Z,2.30
2022-08-07T09:31:38.688Z,2.00
2022-08-07T09:34:26.155Z,2.00
2022-08-07T09:37:15.602Z,1.95
2022-08-07T09:40:04.875Z,2.00
2022-08-07T09:42:51.570Z,2.22
2022-08-07T09:47:27.298Z,1.70
2022-08-07T09:50:01.711Z,1.70
2022-08-07T09:52:15.533Z,2.10
2022-08-07T09:55:05.126Z,1.80
2022-08-07T09:58:15.343Z,2.00
2022-08-07T10:01:03.002Z,1.90
2022-08-07T10:04:06.091Z,2.10
2022-08-07T10:07:24.391Z,1.88
2022-08-07T10:11:00.361Z,2.05
2022-08-07T10:14:01.428Z,1.63
2022-08-07T10:17:14.327Z,2.10
2022-08-07T10:20:05.415Z,2.40
2022-08-07T10:23:07.830Z,1.80
2022-08-07T10:25:58.861Z,2.33
2022-08-07T10:28:52.003Z,2.00
2022-08-07T10:31:45.317Z,2.17
2022-08-07T10:34:37.551Z,1.90
2022-08-07T10:38:00.132Z,1.90
2022-08-07T10:40:39.080Z,1.77
2022-08-07T10:43:34.224Z,1.95
2022-08-07T10:46:20.317Z,2.20
2022-08-07T10:49:13.598Z,1.65
2022-08-07T10:52:12.645Z,2.10
2022-08-07T10:55:01.857Z,2.10
2022-08-07T10:58:06.757Z,2.00
2022-08-07T11:00:58.990Z,1.60
2022-08-07T11:03:55.136Z,1.60
2022-08-07T11:06:49.530Z,1.67
2022-08-07T11:10:07.077Z,2.10
2022-08-07T11:12:43.342Z,1.90
2022-08-07T11:15:31.776Z,2.00
2022-08-07T11:18:17.868Z,1.92
2022-08-07T11:21:07.407Z,1.83
2022-08-07T11:23:55.491Z,1.95
2022-08-07T11:26:48.055Z,1.60
2022-08-07T11:29:40.774Z,2.20
2022-08-07T11:32:31.901Z,1.90
2022-08-07T11:35:25.190Z,1.95
2022-08-07T11:38:17.136Z,1.80
2022-08-07T11:41:01.958Z,1.90
2022-08-07T11:44:11.380Z,1.65
2022-08-07T11:46:54.276Z,1.92
2022-08-07T11:50:25.537Z,1.80
2022-08-07T11:52:59.812Z,1.65
2022-08-07T11:56:23.901Z,1.60
2022-08-07T11:59:01.980Z,1.98
2022-08-07T12:02:00.035Z,1.45
2022-08-07T12:04:56.554Z,1.70
2022-08-07T12:07:42.260Z,1.73
2022-08-07T12:10:29.849Z,1.65
2022-08-07T12:13:17.116Z,1.58
2022-08-07T12:16:09.297Z,1.60
2022-08-07T12:18:54.701Z,2.00
2022-08-07T12:22:36.651Z,1.80
2022-08-07T12:25:07.703Z,1.75
2022-08-07T12:28:08.721Z,1.95
2022-08-07T12:30:55.526Z,1.83
2022-08-07T12:34:01.684Z,1.58
2022-08-07T12:36:42.187Z,1.83
2022-08-07T12:39:43.905Z,1.55
2022-08-07T12:42:34.438Z,1.70
2022-08-07T12:45:20.675Z,1.90
2022-08-07T12:48:27.489Z,1.60
2022-08-07T12:51:17.644Z,1.80
2022-08-07T12:54:37.704Z,1.77
2022-08-07T12:57:10.030Z,1.80
2022-08-07T12:59:55.899Z,1.80
2022-08-07T13:02:49.614Z,1.92
2022-08-07T13:06:03.506Z,1.65
2022-08-07T13:08:50.763Z,1.73
2022-08-07T13:12:02.077Z,1.80
2022-08-07T13:14:52.660Z,1.80
2022-08-07T13:17:43.003Z,1.88
2022-08-07T13:20:32.146Z,1.70
2022-08-07T13:24:01.363Z,1.60
2022-08-07T13:26:26.514Z,1.75
2022-08-07T13:29:12.597Z,1.98
2022-08-07T13:32:23.689Z,1.60
2022-08-07T13:35:08.692Z,1.50
2022-08-07T13:37:59.114Z,1.70
2022-08-07T13:40:48.177Z,2.15
2022-08-07T13:43:34.444Z,3.03
2022-08-07T13:46:24.807Z,1.88
2022-08-07T13:50:34.785Z,1.55
2022-08-07T13:52:32.481Z,1.80
2022-08-07T13:55:26.239Z,1.88
2022-08-07T13:58:27.846Z,1.70
2022-08-07T14:01:15.991Z,1.52
2022-08-07T14:04:09.472Z,1.52
2022-08-07T14:06:53.510Z,1.90
2022-08-07T14:10:02.857Z,2.17
2022-08-07T14:12:49.159Z,1.85
2022-08-07T14:15:39.487Z,1.70
2022-08-07T14:18:29.940Z,1.67
2022-08-07T14:22:02.444Z,1.85
2022-08-07T14:24:26.288Z,1.85
2022-08-07T14:28:09.822Z,1.70
2022-08-07T14:30:16.875Z,2.10
2022-08-07T14:33:17.489Z,1.83
2022-08-07T14:36:08.906Z,1.85
2022-08-07T14:38:51.967Z,1.35
2022-08-07T14:42:19.699Z,1.70
2022-08-07T14:44:39.042Z,1.58
2022-08-07T14:47:25.876Z,1.60
2022-08-07T14:50:11.270Z,1.88
2022-08-07T14:52:57.279Z,1.60
2022-08-07T14:55:55.880Z,1.55
2022-08-07T14:58:55.816Z,1.80
2022-08-07T15:01:42.691Z,1.90
2022-08-07T15:04:39.883Z,1.50
2022-08-07T15:07:47.603Z,1.73
2022-08-07T15:10:35.230Z,1.70
2022-08-07T15:13:19.101Z,1.70
2022-08-07T15:16:03.542Z,1.50
2022-08-07T15:18:55.762Z,1.77
2022-08-07T15:22:03.824Z,1.70
2022-08-07T15:25:16.169Z,1.88
2022-08-07T15:28:32.123Z,1.63
2022-08-07T15:34:01.582Z,1.52
2022-08-07T15:39:57.701Z,1.50
2022-08-07T15:42:55.800Z,1.60
2022-08-07T15:45:55.467Z,1.70
2022-08-07T15:49:11.954Z,1.73
2022-08-07T15:54:41.778Z,1.35
2022-08-07T15:57:39.922Z,1.55
2022-08-07T16:00:34.030Z,1.77
2022-08-07T16:03:20.932Z,1.70
2022-08-07T16:06:09.382Z,1.83
2022-08-07T16:08:54.968Z,1.80
2022-08-07T16:11:56.677Z,1.60
2022-08-07T16:14:51.807Z,1.52
2022-08-07T16:18:01.578Z,1.60
2022-08-07T16:21:43.673Z,1.60
2022-08-07T16:24:00.003Z,1.70
2022-08-07T16:26:59.576Z,1.40
2022-08-07T16:30:09.739Z,1.60
2022-08-07T16:32:59.965Z,1.38
2022-08-07T16:36:20.227Z,1.50
2022-08-07T16:39:33.714Z,1.45
2022-08-07T16:42:36.603Z,1.50
2022-08-07T16:46:33.544Z,1.55
2022-08-07T16:48:58.532Z,1.42
2022-08-07T16:52:50.748Z,1.48
2022-08-07T16:55:08.482Z,2.00
2022-08-07T16:58:03.991Z,1.50
2022-08-07T17:00:54.624Z,1.65
2022-08-07T17:03:57.917Z,1.40
2022-08-07T17:07:02.756Z,1.52
2022-08-07T17:10:06.534Z,1.50
2022-08-07T17:12:54.210Z,1.70
2022-08-07T17:15:51.706Z,1.67
2022-08-07T17:18:38.342Z,1.60
2022-08-07T17:21:23.068Z,1.42
2022-08-07T17:24:32.726Z,1.27
2022-08-07T17:27:32.383Z,1.50
2022-08-07T17:30:20.000Z,1.50
2022-08-07T17:34:09.953Z,1.45
2022-08-07T17:36:20.252Z,1.50
2022-08-07T17:39:10.208Z,1.58
2022-08-07T17:42:04.400Z,1.40
2022-08-07T17:44:51.086Z,1.80
2022-08-07T17:47:38.574Z,2.38
2022-08-07T17:50:31.750Z,1.63
2022-08-07T17:53:55.673Z,2.67
2022-08-07T17:56:28.661Z,1.58
2022-08-07T17:59:20.006Z,2.22
2022-08-07T18:02:08.546Z,1.83
2022-08-07T18:04:56.737Z,1.90
2022-08-07T18:07:43.683Z,1.90
2022-08-07T18:10:37.671Z,2.30
2022-08-07T18:13:41.880Z,1.40
2022-08-07T18:16:33.238Z,1.58
2022-08-07T18:21:12.395Z,1.55
2022-08-07T18:22:31.749Z,1.67
2022-08-07T18:25:39.417Z,1.80
2022-08-07T18:28:35.587Z,1.38
2022-08-07T18:31:24.896Z,1.52
2022-08-07T18:34:34.833Z,1.50
2022-08-07T18:38:58.567Z,1.80
2022-08-07T18:40:53.365Z,1.70
2022-08-07T18:43:49.523Z,1.40
2022-08-07T18:46:43.146Z,1.55
2022-08-07T18:50:32.923Z,1.58
2022-08-07T18:52:54.393Z,1.60
2022-08-07T18:55:55.819Z,1.52
2022-08-07T18:58:51.346Z,1.60
2022-08-07T19:02:18.066Z,1.85
2022-08-07T19:04:57.531Z,1.45
2022-08-07T19:07:58.638Z,1.60
2022-08-07T19:10:51.479Z,1.58
2022-08-07T19:13:50.171Z,1.38
2022-08-07T19:17:00.734Z,1.50
2022-08-07T19:19:42.430Z,1.30
2022-08-07T19:22:31.082Z,1.58
2022-08-07T19:26:22.608Z,1.48
2022-08-07T19:30:54.166Z,1.58
2022-08-07T19:31:59.706Z,1.67
2022-08-07T19:34:33.820Z,1.65
2022-08-07T19:37:20.219Z,1.67
2022-08-07T19:40:06.924Z,1.80
2022-08-07T19:42:51.740Z,1.65
2022-08-07T19:46:09.242Z,1.60
2022-08-07T19:48:53.776Z,1.80
2022-08-07T19:51:52.707Z,1.83
2022-08-07T19:54:45.188Z,1.42
2022-08-07T19:58:01.224Z,1.63
2022-08-07T20:00:53.076Z,1.52
2022-08-07T20:03:38.705Z,1.45
2022-08-07T20:06:30.881Z,1.60
2022-08-07T20:10:33.352Z,1.80
2022-08-07T20:12:31.932Z,1.70
2022-08-07T20:15:22.296Z,1.77
2022-08-07T20:18:18.089Z,1.92
2022-08-07T20:21:14.253Z,1.60
2022-08-07T20:24:13.331Z,1.52
2022-08-07T20:26:57.128Z,1.92
2022-08-07T20:29:49.051Z,1.60
2022-08-07T20:32:40.470Z,1.58
2022-08-07T20:35:29.521Z,1.77
2022-08-07T20:38:20.363Z,1.60
2022-08-07T20:41:08.460Z,1.67
2022-08-07T20:43:53.563Z,1.60
2022-08-07T20:46:44.662Z,1.70
2022-08-07T20:50:00.447Z,1.60
2022-08-07T20:52:51.354Z,2.00
2022-08-07T20:55:37.181Z,1.65
2022-08-07T20:58:26.700Z,1.83
2022-08-07T21:01:20.096Z,1.70
2022-08-07T21:04:22.911Z,2.05
2022-08-07T21:07:14.659Z,2.03
2022-08-07T21:10:03.769Z,2.08
2022-08-07T21:12:47.782Z,1.73
2022-08-07T21:15:58.004Z,1.67
2022-08-07T21:18:41.148Z,1.60
2022-08-07T21:21:27.740Z,2.13
2022-08-07T21:24:12.833Z,1.80
2022-08-07T21:27:01.950Z,2.00
2022-08-07T21:29:53.082Z,1.70
2022-08-07T21:32:43.892Z,1.58
2022-08-07T21:36:04.230Z,1.50
2022-08-07T21:38:44.160Z,1.70
2022-08-07T21:41:37.993Z,1.67
2022-08-07T21:44:28.447Z,1.63
2022-08-07T21:47:17.260Z,1.77
2022-08-07T21:50:03.619Z,1.85
2022-08-07T21:52:50.585Z,1.75
2022-08-07T21:55:40.913Z,1.80
2022-08-07T21:58:32.301Z,1.80
2022-08-07T22:01:20.455Z,1.73
2022-08-07T22:04:25.005Z,1.70
2022-08-07T22:07:11.517Z,1.80
2022-08-07T22:09:57.325Z,1.75
2022-08-07T22:12:45.493Z,1.70
2022-08-07T22:16:41.225Z,1.70
2022-08-07T22:18:38.305Z,1.42
2022-08-07T22:22:02.570Z,1.60
2022-08-07T22:24:33.959Z,1.80
2022-08-07T22:27:18.544Z,1.60
2022-08-07T22:30:03.989Z,1.42
2022-08-07T22:33:04.930Z,1.42
2022-08-07T22:35:52.049Z,1.50
2022-08-07T22:38:40.037Z,1.77
2022-08-07T22:42:03.302Z,1.80
2022-08-07T22:44:41.485Z,1.83
2022-08-07T22:47:56.096Z,1.70
2022-08-07T22:50:52.806Z,1.58
2022-08-07T22:54:07.902Z,1.35
2022-08-07T22:56:55.576Z,1.77
2022-08-07T22:59:47.103Z,1.85
2022-08-07T23:02:38.483Z,1.80
2022-08-07T23:06:15.344Z,1.55
2022-08-07T23:08:47.923Z,1.48
2022-08-07T23:11:47.060Z,1.60
2022-08-07T23:14:38.810Z,2.20
2022-08-07T23:17:26.735Z,1.85
2022-08-07T23:20:52.310Z,2.10
2022-08-07T23:24:04.481Z,1.60
2022-08-07T23:26:58.613Z,1.83
2022-08-07T23:30:37.565Z,1.60
2022-08-07T23:34:35.188Z,1.90
2022-08-07T23:36:34.727Z,1.80
2022-08-07T23:39:22.039Z,1.83
2022-08-07T23:42:21.387Z,2.10
2022-08-07T23:45:32.998Z,2.95
2022-08-07T23:48:27.319Z,3.05
2022-08-07T23:52:58.832Z,3.30
2022-08-07T23:54:19.849Z,3.10
2022-08-07T23:57:24.516Z,2.70
